Time;durP1;ratioP1;P1;durP2;ratioP2;P2;SDS_P1;SDS_P2;PMS_P1;PMS_P2;Temp;Humidity;BMP_temperature;BMP_pressure;BME280_temperature;BME280_humidity;BME280_pressure;Samples;Min_cycle;Max_cycle;Signal;HPM_P1;HPM_P2
2022/08/02 00:01:01;;;;;;;3.08;1.98;;;;;;;17.54;54.53;101673.31;4665277;30;20096;-75
2022/08/02 00:03:27;;;;;;;6.78;2.55;;;;;;;17.53;54.50;101690.84;4683169;30;20386;-77
2022/08/02 00:05:57;;;;;;;5.00;2.03;;;;;;;17.50;55.40;101680.41;4683368;30;20133;-75
2022/08/02 00:08:22;;;;;;;5.80;2.28;;;;;;;17.51;55.44;101679.31;4682914;30;20050;-74
2022/08/02 00:10:48;;;;;;;4.70;2.13;;;;;;;17.45;55.68;101674.84;4683701;30;20113;-73
2022/08/02 00:13:13;;;;;;;6.03;2.03;;;;;;;17.39;56.58;101675.84;4683318;30;20025;-75
2022/08/02 00:15:39;;;;;;;5.05;2.10;;;;;;;17.43;56.17;101671.53;4665439;30;20522;-75
2022/08/02 00:18:04;;;;;;;6.03;2.20;;;;;;;17.41;55.78;101684.63;4667485;30;20542;-75
2022/08/02 00:20:29;;;;;;;5.57;2.10;;;;;;;17.41;56.25;101679.16;4682890;30;20038;-76
2022/08/02 00:22:55;;;;;;;3.50;2.20;;;;;;;17.46;55.59;101679.25;4667324;30;20040;-77
2022/08/02 00:25:20;;;;;;;5.90;2.20;;;;;;;17.38;56.00;101685.97;4682046;30;20050;-77
2022/08/02 00:27:45;;;;;;;3.80;1.90;;;;;;;17.45;55.96;101691.25;4667198;30;20384;-75
2022/08/02 00:30:11;;;;;;;3.92;1.88;;;;;;;17.36;55.09;101690.84;4682271;30;20046;-75
2022/08/02 00:32:36;;;;;;;7.72;1.95;;;;;;;17.41;55.73;101690.09;4667087;30;20030;-75
2022/08/02 00:35:02;;;;;;;6.45;2.03;;;;;;;17.37;56.17;101695.25;4682122;30;20519;-75
2022/08/02 00:37:27;;;;;;;8.55;2.28;;;;;;;17.39;55.87;101687.59;4681479;30;20034;-77
2022/08/02 00:39:52;;;;;;;2.85;1.73;;;;;;;17.44;56.42;101690.44;4666770;30;20486;-77
2022/08/02 00:42:18;;;;;;;4.65;1.73;;;;;;;17.42;56.13;101684.41;4683097;30;20033;-76
2022/08/02 00:44:43;;;;;;;5.53;2.00;;;;;;;17.41;56.39;101684.63;4681096;30;20042;-76
2022/08/02 00:47:09;;;;;;;3.65;1.70;;;;;;;17.39;56.02;101686.78;4682413;30;20038;-76
2022/08/02 00:49:34;;;;;;;3.75;1.90;;;;;;;17.29;56.30;101682.81;4666975;30;20033;-77
2022/08/02 00:52:00;;;;;;;6.70;1.85;;;;;;;17.27;55.20;101684.13;4681345;30;20060;-75
2022/08/02 00:54:25;;;;;;;3.55;1.50;;;;;;;17.35;55.75;101673.63;4679949;30;20052;-76
2022/08/02 00:56:51;;;;;;;4.65;1.60;;;;;;;17.29;55.27;101666.41;4682412;30;20037;-76
2022/08/02 00:59:17;;;;;;;3.50;1.58;;;;;;;17.28;55.41;101666.66;4682538;30;20030;-75
2022/08/02 01:01:42;;;;;;;4.25;1.40;;;;;;;17.29;56.26;101666.41;4679893;30;20036;-75
2022/08/02 01:04:10;;;;;;;4.60;1.50;;;;;;;17.30;55.77;101659.03;4682227;30;20076;-76
2022/08/02 01:06:38;;;;;;;4.07;1.50;;;;;;;17.33;55.82;101655.78;4681493;30;20125;-77
2022/08/02 01:09:05;;;;;;;6.13;1.60;;;;;;;17.24;55.29;101652.66;4682524;30;20418;-76
2022/08/02 01:11:31;;;;;;;6.10;1.55;;;;;;;17.24;55.10;101651.81;4682247;30;20064;-76
2022/08/02 01:14:06;;;;;;;4.72;1.73;;;;;;;17.24;56.16;101658.13;4682461;30;20037;-75
2022/08/02 01:16:37;;;;;;;6.28;1.88;;;;;;;17.23;56.74;101661.13;4665967;30;20436;-76
2022/08/02 01:19:21;;;;;;;;;;;;;;;17.41;55.87;101662.72;4665538;30;20030;-75
2022/08/02 01:21:59;;;;;;;4.00;1.63;;;;;;;17.20;55.58;101658.88;4681402;30;19915;-75
2022/08/02 01:24:43;;;;;;;4.28;1.40;;;;;;;17.15;56.65;101670.56;4665250;30;20045;-76
2022/08/02 01:27:28;;;;;;;6.78;1.80;;;;;;;17.14;56.10;101655.25;4665305;30;20102;-77
2022/08/02 01:29:58;;;;;;;6.43;1.77;;;;;;;17.15;56.21;101665.09;4664006;30;20367;-76
2022/08/02 01:32:30;;;;;;;3.78;1.70;;;;;;;17.14;56.44;101661.53;4668980;30;20033;-76
2022/08/02 01:35:04;;;;;;;3.20;1.50;;;;;;;17.22;57.22;101656.72;4681353;30;20042;-76
2022/08/02 01:37:45;;;;;;;3.95;1.63;;;;;;;17.24;56.33;101662.75;4681652;30;20379;-76
2022/08/02 01:40:15;;;;;;;9.80;2.30;;;;;;;17.18;55.84;101649.03;4684958;30;20038;-76
2022/08/02 01:42:48;;;;;;;5.70;2.08;;;;;;;17.27;56.10;101656.78;4668731;30;20491;-76
2022/08/02 01:45:16;;;;;;;4.93;1.70;;;;;;;17.24;56.71;101651.81;4684415;30;20204;-77
2022/08/02 01:47:44;;;;;;;4.15;1.75;;;;;;;17.18;56.45;101653.63;4685308;30;20041;-75
2022/08/02 01:50:16;;;;;;;3.47;1.80;;;;;;;17.08;56.94;101639.84;4685615;30;20051;-77
2022/08/02 01:52:47;;;;;;;5.20;2.20;;;;;;;17.17;57.56;101639.16;4682604;30;20049;-76
2022/08/02 01:55:21;;;;;;;7.82;2.00;;;;;;;17.20;56.62;101639.75;4685411;30;20037;-77
2022/08/02 01:57:52;;;;;;;7.30;2.03;;;;;;;17.20;56.95;101634.28;4685118;30;20038;-77
2022/08/02 02:00:19;;;;;;;;;;;;;;;17.34;56.79;101638.31;4685558;30;20026;-77
2022/08/02 02:02:47;;;;;;;4.53;1.90;;;;;;;17.09;57.99;101634.13;4671167;30;20289;-77
2022/08/02 02:05:16;;;;;;;6.38;2.10;;;;;;;17.06;58.50;101634.63;4669491;30;20040;-76
2022/08/02 02:07:43;;;;;;;4.38;1.90;;;;;;;17.05;57.97;101632.94;4682723;30;20518;-75
2022/08/02 02:10:13;;;;;;;4.07;1.90;;;;;;;17.10;58.64;101633.00;4685170;30;20211;-77
2022/08/02 02:12:41;;;;;;;4.78;1.83;;;;;;;17.05;58.85;101622.00;4684230;30;20527;-76
2022/08/02 02:15:10;;;;;;;3.20;1.75;;;;;;;17.00;59.14;101619.22;4684816;30;20464;-76
2022/08/02 02:17:38;;;;;;;4.72;2.17;;;;;;;17.02;59.65;101627.97;4669285;30;20085;-76
2022/08/02 02:20:04;;;;;;;4.78;1.70;;;;;;;17.00;59.42;101617.28;4684665;30;20062;-75
2022/08/02 02:22:29;;;;;;;6.10;1.90;;;;;;;16.99;59.34;101609.34;4683342;30;20068;-76
2022/08/02 02:24:54;;;;;;;6.22;2.05;;;;;;;16.95;60.04;101599.97;4684064;30;20054;-76
2022/08/02 02:27:23;;;;;;;8.30;1.90;;;;;;;16.95;60.25;101597.25;4684691;30;20373;-76
2022/08/02 02:29:51;;;;;;;6.15;1.90;;;;;;;16.88;61.06;101594.69;4684610;30;20484;-80
2022/08/02 02:32:17;;;;;;;5.53;1.80;;;;;;;16.84;60.64;101588.03;4683859;30;20026;-75
2022/08/02 02:34:45;;;;;;;6.28;1.50;;;;;;;16.84;60.74;101597.03;4684637;30;20121;-80
2022/08/02 02:37:22;;;;;;;20.42;2.97;;;;;;;16.82;61.16;101592.91;4680623;30;20041;-71
2022/08/02 02:39:50;;;;;;;4.82;1.80;;;;;;;16.84;61.66;101604.41;4683625;30;20049;-76
2022/08/02 02:42:18;;;;;;;5.68;1.85;;;;;;;16.80;61.66;101606.00;4683639;30;20034;-75
2022/08/02 02:44:49;;;;;;;5.40;1.60;;;;;;;16.72;61.20;101600.94;4684337;30;20034;-77
2022/08/02 02:47:17;;;;;;;5.65;1.90;;;;;;;16.71;61.43;101600.09;4684396;30;20367;-76
2022/08/02 02:49:46;;;;;;;8.05;2.08;;;;;;;16.78;61.74;101606.25;4682769;30;20041;-77
2022/08/02 02:52:15;;;;;;;5.90;2.05;;;;;;;16.72;62.24;101601.75;4683772;30;20033;-75
2022/08/02 02:54:42;;;;;;;4.90;2.20;;;;;;;16.72;62.81;101601.75;4684114;30;20025;-77
2022/08/02 02:57:08;;;;;;;3.83;1.80;;;;;;;16.69;62.94;101598.72;4684250;30;20074;-76
2022/08/02 02:59:35;;;;;;;6.82;2.17;;;;;;;16.72;62.90;101606.41;4684053;30;20406;-76
2022/08/02 03:02:01;;;;;;;6.68;1.60;;;;;;;16.63;63.61;101606.81;4680705;30;20057;-78
2022/08/02 03:04:28;;;;;;;8.38;2.10;;;;;;;16.55;63.71;101600.94;4684247;30;20069;-75
2022/08/02 03:06:53;;;;;;;4.32;1.60;;;;;;;16.59;64.46;101596.63;4684017;30;20156;-77
2022/08/02 03:09:19;;;;;;;6.70;2.33;;;;;;;16.53;63.92;101590.25;4683332;30;20570;-78
2022/08/02 03:11:45;;;;;;;4.38;2.00;;;;;;;16.54;64.00;101593.81;4682518;30;20044;-76
2022/08/02 03:14:12;;;;;;;6.05;1.98;;;;;;;16.55;63.95;101587.28;4684050;30;20034;-78
2022/08/02 03:16:53;;;;;;;10.48;2.10;;;;;;;16.56;64.17;101591.66;4683775;30;20026;-78
2022/08/02 03:19:19;;;;;;;;;;;;;;;16.69;63.08;101590.50;4684421;30;20053;-78
2022/08/02 03:21:46;;;;;;;8.95;2.53;;;;;;;16.46;65.47;101587.66;4683256;30;20304;-80
2022/08/02 03:24:12;;;;;;;5.90;2.00;;;;;;;16.43;65.55;101587.34;4680894;30;20119;-78
2022/08/02 03:26:38;;;;;;;7.32;2.58;;;;;;;16.43;65.36;101590.06;4665247;30;20030;-74
2022/08/02 03:29:03;;;;;;;4.30;1.80;;;;;;;16.41;65.25;101595.78;4666321;30;20094;-76
2022/08/02 03:31:29;;;;;;;6.72;2.15;;;;;;;16.41;64.82;101603.97;4659567;30;20034;-75
2022/08/02 03:33:55;;;;;;;7.10;2.20;;;;;;;16.40;65.69;101604.22;4683483;30;20034;-78
2022/08/02 03:36:22;;;;;;;7.50;1.92;;;;;;;16.38;65.33;101596.28;4683693;30;20041;-77
2022/08/02 03:38:50;;;;;;;5.72;2.00;;;;;;;16.38;66.19;101588.09;4681332;30;20038;-78
2022/08/02 03:41:17;;;;;;;6.00;2.20;;;;;;;16.33;65.68;101585.25;4680966;30;20038;-73
2022/08/02 03:43:45;;;;;;;2.97;1.83;;;;;;;16.33;65.57;101578.97;4682747;30;20395;-77
2022/08/02 03:46:12;;;;;;;7.90;2.20;;;;;;;16.26;66.13;101579.09;4683395;30;20038;-79
2022/08/02 03:48:38;;;;;;;8.52;2.10;;;;;;;16.26;65.96;101569.03;4683004;30;20041;-75
2022/08/02 03:51:04;;;;;;;5.55;2.10;;;;;;;16.21;66.02;101568.09;4667152;30;20041;-80
2022/08/02 03:53:30;;;;;;;7.00;1.73;;;;;;;16.20;66.09;101566.44;4683035;30;20407;-79
2022/08/02 03:55:56;;;;;;;5.82;2.35;;;;;;;16.22;65.94;101567.03;4682826;30;20244;-79
2022/08/02 03:58:23;;;;;;;5.55;2.30;;;;;;;16.21;65.95;101557.16;4667309;30;20091;-79
2022/08/02 04:00:50;;;;;;;6.60;2.40;;;;;;;16.26;65.35;101559.97;4679554;30;20029;-78
2022/08/02 04:03:15;;;;;;;6.80;2.15;;;;;;;16.25;65.90;101563.81;4683302;30;20041;-77
2022/08/02 04:05:41;;;;;;;10.25;2.60;;;;;;;16.28;65.77;101558.66;4682470;30;20365;-77
2022/08/02 04:08:06;;;;;;;4.95;2.50;;;;;;;16.37;65.31;101556.38;4683186;30;20031;-74
2022/08/02 04:11:29;;;;;;;9.55;2.75;;;;;;;16.30;66.13;101550.22;4666830;30;20460;-78
2022/08/02 04:13:26;;;;;;;6.40;2.63;;;;;;;16.34;65.26;101548.66;4682572;30;20476;-78
2022/08/02 04:15:54;;;;;;;9.65;2.80;;;;;;;16.36;65.81;101549.25;4667320;30;20041;-76
2022/08/02 04:18:29;;;;;;;8.85;3.42;;;;;;;16.40;65.50;101553.16;4683027;30;20069;-76
2022/08/02 04:20:58;;;;;;;9.63;2.80;;;;;;;16.38;65.70;101549.84;4666202;30;20172;-76
2022/08/02 04:23:24;;;;;;;8.52;2.80;;;;;;;16.43;66.00;101549.09;4682936;30;20120;-80
2022/08/02 04:25:51;;;;;;;9.52;2.85;;;;;;;16.39;66.60;101547.94;4682154;30;20565;-77
2022/08/02 04:28:16;;;;;;;9.63;3.20;;;;;;;16.45;66.57;101557.88;4667316;30;20030;-76
2022/08/02 04:30:42;;;;;;;9.00;3.03;;;;;;;16.42;66.54;101552.91;4666300;30;20044;-77
2022/08/02 04:33:08;;;;;;;4.57;2.58;;;;;;;16.45;66.91;101552.41;4682764;30;20107;-79
2022/08/02 04:35:33;;;;;;;8.57;2.60;;;;;;;16.46;66.98;101556.81;4680866;30;20064;-78
2022/08/02 04:37:58;;;;;;;8.38;3.63;;;;;;;16.50;66.89;101565.31;4682271;30;20038;-77
2022/08/02 04:40:24;;;;;;;6.70;2.75;;;;;;;16.53;66.81;101559.34;4682640;30;20030;-79
2022/08/02 04:42:49;;;;;;;5.35;2.63;;;;;;;16.58;66.47;101565.75;4682371;30;20050;-74
2022/08/02 04:45:15;;;;;;;8.35;3.10;;;;;;;16.61;67.32;101572.63;4680727;30;20050;-74
2022/08/02 04:47:40;;;;;;;9.15;2.80;;;;;;;16.58;67.35;101562.19;4682285;30;20062;-76
2022/08/02 04:50:06;;;;;;;6.78;2.72;;;;;;;16.60;67.58;101560.03;4681758;30;20154;-76
2022/08/02 04:52:32;;;;;;;7.68;3.30;;;;;;;16.59;68.63;101558.38;4682311;30;20096;-78
2022/08/02 04:54:57;;;;;;;10.27;3.40;;;;;;;16.62;67.96;101558.72;4681631;30;20034;-75
2022/08/02 05:00:08;;;;;;;11.23;3.50;;;;;;;16.67;69.36;101552.50;4679096;30;20115;-78
2022/08/02 05:02:34;;;;;;;11.98;3.53;;;;;;;16.66;69.46;101554.38;4680099;30;20044;-77
2022/08/02 05:04:59;;;;;;;8.68;3.63;;;;;;;16.64;69.40;101542.88;4681337;30;20391;-75
2022/08/02 05:07:25;;;;;;;10.05;4.10;;;;;;;16.69;69.70;101536.66;4681732;30;20054;-75
2022/08/02 05:09:50;;;;;;;13.40;3.97;;;;;;;16.75;69.15;101546.59;4681240;30;20038;-78
2022/08/02 05:12:15;;;;;;;9.73;3.78;;;;;;;16.74;69.92;101544.97;4682137;30;20042;-79
2022/08/02 05:14:41;;;;;;;15.40;4.35;;;;;;;16.84;69.78;101555.22;4681143;30;20038;-77
2022/08/02 05:17:06;;;;;;;10.18;4.65;;;;;;;16.84;70.09;101547.84;4665933;30;20439;-78
2022/08/02 05:19:31;;;;;;;10.00;4.18;;;;;;;16.86;70.57;101536.66;4681112;30;20109;-79
2022/08/02 05:21:57;;;;;;;13.15;4.22;;;;;;;16.93;70.79;101542.81;4681744;30;20111;-76
2022/08/02 05:24:22;;;;;;;12.10;4.57;;;;;;;16.99;70.72;101543.72;4681959;30;20061;-78
2022/08/02 05:26:47;;;;;;;11.43;4.63;;;;;;;17.02;70.97;101534.19;4681301;30;20096;-81
2022/08/02 05:29:13;;;;;;;15.13;4.80;;;;;;;17.12;70.51;101535.16;4682210;30;20037;-75
2022/08/02 05:31:38;;;;;;;15.68;5.18;;;;;;;17.17;70.86;101535.22;4666616;30;20026;-76
2022/08/02 05:34:03;;;;;;;9.15;4.88;;;;;;;17.21;71.35;101529.25;4680851;30;20034;-77
2022/08/02 05:36:28;;;;;;;12.48;5.18;;;;;;;17.25;71.06;101527.66;4681348;30;20040;-75
2022/08/02 05:38:54;;;;;;;12.10;4.90;;;;;;;17.30;71.05;101539.50;4681862;30;20033;-77
2022/08/02 05:41:22;;;;;;;9.18;4.93;;;;;;;17.35;71.86;101536.84;4666531;30;20086;-76
2022/08/02 05:43:48;;;;;;;9.68;4.90;;;;;;;17.41;72.65;101542.34;4681872;30;20431;-76
2022/08/02 05:46:13;;;;;;;10.98;4.75;;;;;;;17.50;73.13;101530.72;4681252;30;20126;-77
2022/08/02 05:48:39;;;;;;;11.32;5.43;;;;;;;17.49;74.18;101529.06;4681005;30;20368;-76
2022/08/02 05:51:12;;;;;;;9.18;5.07;;;;;;;17.53;75.21;101541.16;4680714;30;20054;-74
2022/08/02 05:53:47;;;;;;;8.35;4.72;;;;;;;17.64;74.72;101544.03;4666450;30;20030;-77
2022/08/02 05:56:32;;;;;;;10.43;4.82;;;;;;;17.71;75.31;101550.97;4665720;30;20128;-75
2022/08/02 05:59:54;;;;;;;13.45;5.20;;;;;;;17.85;74.51;101553.31;4680527;30;20365;-77
2022/08/02 06:02:36;;;;;;;9.02;5.30;;;;;;;17.86;75.20;101555.78;4626215;30;20043;-76
2022/08/02 06:05:09;;;;;;;;;;;;;;;17.99;73.34;101559.22;4625598;31;20040;-76
2022/08/02 06:07:36;;;;;;;14.18;5.50;;;;;;;17.88;76.80;101558.25;4667906;30;19920;-76
2022/08/02 06:10:05;;;;;;;15.55;5.47;;;;;;;17.89;76.59;101560.78;4680458;30;20456;-76
2022/08/02 06:12:34;;;;;;;9.75;5.30;;;;;;;17.94;77.18;101561.91;4681897;30;20037;-77
2022/08/02 06:15:02;;;;;;;8.02;5.53;;;;;;;17.91;77.53;101566.00;4681625;30;20045;-76
2022/08/02 06:17:29;;;;;;;12.60;5.30;;;;;;;17.88;78.36;101570.03;4681069;30;20128;-75
2022/08/02 06:19:57;;;;;;;13.43;5.47;;;;;;;17.94;79.02;101568.22;4680665;30;20647;-73
2022/08/02 06:22:25;;;;;;;12.00;5.82;;;;;;;17.93;78.95;101565.72;4681759;30;20033;-77
2022/08/02 06:24:53;;;;;;;9.52;5.35;;;;;;;17.95;78.86;101569.03;4683211;30;20045;-77
2022/08/02 06:27:19;;;;;;;13.88;6.00;;;;;;;17.96;79.47;101571.50;4668493;30;20030;-73
2022/08/02 06:29:47;;;;;;;10.63;5.60;;;;;;;17.98;80.43;101565.78;4684919;30;20094;-74
2022/08/02 06:32:16;;;;;;;12.05;5.80;;;;;;;18.05;80.35;101555.44;4682189;30;20030;-76
2022/08/02 06:34:42;;;;;;;12.85;5.70;;;;;;;18.09;80.34;101550.28;4684190;30;20042;-74
2022/08/02 06:37:25;;;;;;;12.77;6.15;;;;;;;18.16;79.94;101550.91;4679032;30;20459;-74
2022/08/02 06:40:00;;;;;;;9.45;5.95;;;;;;;18.17;80.68;101558.03;4651643;30;20093;-75
2022/08/02 06:43:00;;;;;;;12.73;6.03;;;;;;;18.22;81.24;101553.44;4667164;30;20125;-74
2022/08/02 06:45:25;;;;;;;12.98;7.05;;;;;;;18.34;80.94;101552.44;4632157;30;20062;-75
2022/08/02 06:47:51;;;;;;;14.35;7.00;;;;;;;18.35;82.28;101541.22;4658637;30;20459;-75
2022/08/02 06:50:16;;;;;;;13.32;7.35;;;;;;;18.42;82.44;101541.03;4683874;30;20073;-74
2022/08/02 06:52:41;;;;;;;10.68;6.93;;;;;;;18.50;82.53;101546.00;4684284;30;20061;-75
2022/08/02 06:55:07;;;;;;;13.65;7.68;;;;;;;18.55;83.81;101540.56;4684037;30;20045;-76
2022/08/02 06:57:33;;;;;;;11.65;7.43;;;;;;;18.62;83.69;101545.84;4681216;30;20034;-76
2022/08/02 07:00:01;;;;;;;14.80;8.27;;;;;;;18.65;85.00;101539.00;4682504;30;20057;-77
2022/08/02 07:02:27;;;;;;;12.95;8.38;;;;;;;18.70;85.87;101542.59;4677048;30;20530;-76
2022/08/02 07:04:53;;;;;;;13.20;8.45;;;;;;;18.79;87.01;101556.66;4680543;30;20066;-74
2022/08/02 07:07:18;;;;;;;14.05;7.55;;;;;;;18.87;87.51;101547.97;4683097;30;20432;-75
2022/08/02 07:09:44;;;;;;;14.52;9.13;;;;;;;18.92;86.80;101550.75;4683912;30;20030;-72
2022/08/02 07:12:09;;;;;;;15.27;8.45;;;;;;;18.98;88.02;101546.13;4683468;30;20112;-77
2022/08/02 07:14:34;;;;;;;14.73;8.43;;;;;;;19.06;86.65;101566.75;4683763;30;20026;-74
2022/08/02 07:17:02;;;;;;;20.95;8.13;;;;;;;19.17;87.42;101559.41;4683783;30;20207;-76
2022/08/02 07:19:27;;;;;;;16.00;7.60;;;;;;;19.24;85.45;101551.75;4682846;30;20034;-75
2022/08/02 07:21:52;;;;;;;12.63;7.35;;;;;;;19.30;84.25;101551.50;4682231;30;20384;-73
2022/08/02 07:24:18;;;;;;;17.55;7.53;;;;;;;19.33;82.16;101533.69;4683050;30;20033;-76
2022/08/02 07:26:43;;;;;;;10.40;6.50;;;;;;;19.34;81.66;101542.75;4682677;30;20041;-77
2022/08/02 07:29:08;;;;;;;14.77;7.00;;;;;;;19.35;81.11;101533.41;4677490;30;20472;-74
2022/08/02 07:31:34;;;;;;;16.73;6.85;;;;;;;19.35;81.56;101536.16;4650994;30;20106;-76
2022/08/02 07:33:59;;;;;;;13.73;6.20;;;;;;;19.36;80.35;101537.81;4669809;30;20045;-76
2022/08/02 07:36:24;;;;;;;13.93;6.47;;;;;;;19.42;80.57;101532.06;4681435;30;20185;-74
2022/08/02 07:38:49;;;;;;;10.30;5.80;;;;;;;19.49;80.96;101534.59;4683406;30;20033;-74
2022/08/02 07:41:15;;;;;;;9.68;5.68;;;;;;;19.55;80.16;101532.66;4683278;30;20033;-76
2022/08/02 07:43:40;;;;;;;8.68;5.47;;;;;;;19.62;81.19;101536.81;4668059;30;20037;-73
2022/08/02 07:46:06;;;;;;;10.65;5.50;;;;;;;19.66;78.90;101534.38;4682191;30;20034;-73
2022/08/02 07:48:32;;;;;;;18.80;6.18;;;;;;;19.71;79.14;101536.31;4683187;30;20042;-74
2022/08/02 07:50:57;;;;;;;10.95;5.57;;;;;;;19.81;79.24;101539.13;4667685;30;20061;-74
2022/08/02 07:53:22;;;;;;;7.45;4.90;;;;;;;19.91;79.01;101538.31;4683007;30;20451;-72
2022/08/02 07:55:48;;;;;;;7.43;5.07;;;;;;;19.96;78.10;101547.38;4683615;30;20069;-76
2022/08/02 07:58:13;;;;;;;8.88;4.75;;;;;;;20.05;78.50;101544.94;4682650;30;20034;-76
2022/08/02 08:00:40;;;;;;;5.18;4.30;;;;;;;20.13;77.13;101549.06;4662780;30;20030;-73
2022/08/02 08:03:06;;;;;;;9.90;4.80;;;;;;;20.19;76.11;101547.97;4683018;30;20030;-76
2022/08/02 08:05:31;;;;;;;7.88;4.40;;;;;;;20.30;75.74;101540.56;4681740;30;20037;-75
2022/08/02 08:07:56;;;;;;;4.63;3.50;;;;;;;20.37;74.90;101535.63;4682647;30;20088;-73
2022/08/02 08:10:22;;;;;;;6.93;3.63;;;;;;;20.42;72.99;101540.31;4667696;30;20034;-75
2022/08/02 08:12:47;;;;;;;5.63;3.40;;;;;;;20.45;71.65;101542.50;4667545;30;20068;-73
2022/08/02 08:15:13;;;;;;;7.35;2.90;;;;;;;20.49;70.93;101540.84;4666215;30;20762;-76
2022/08/02 08:17:38;;;;;;;6.22;3.20;;;;;;;20.51;70.71;101547.72;4682933;30;20069;-75
2022/08/02 08:20:04;;;;;;;6.00;3.35;;;;;;;20.54;71.24;101547.16;4682661;30;20038;-74
2022/08/02 08:22:30;;;;;;;5.22;2.92;;;;;;;20.59;71.80;101543.56;4682473;30;20045;-73
2022/08/02 08:24:55;;;;;;;9.27;3.35;;;;;;;20.66;71.34;101543.34;4682325;30;20116;-76
2022/08/02 08:27:21;;;;;;;5.10;2.60;;;;;;;20.78;71.11;101540.31;4682796;30;20061;-74
2022/08/02 08:29:47;;;;;;;5.22;2.70;;;;;;;20.85;69.49;101540.88;4681845;30;20065;-74
2022/08/02 08:32:13;;;;;;;4.18;2.63;;;;;;;20.89;67.99;101526.28;4682360;30;20033;-74
2022/08/02 08:34:38;;;;;;;9.75;3.15;;;;;;;20.94;66.36;101533.69;4667136;30;20476;-74
2022/08/02 08:37:03;;;;;;;6.20;2.60;;;;;;;21.02;67.23;101524.03;4681248;30;20120;-73
2022/08/02 08:39:29;;;;;;;8.48;2.80;;;;;;;21.10;66.12;101525.38;4667270;30;20033;-75
2022/08/02 08:41:54;;;;;;;6.57;3.20;;;;;;;21.17;66.33;101532.25;4682634;30;20048;-75
2022/08/02 08:44:20;;;;;;;13.20;3.85;;;;;;;21.24;65.33;101520.91;4680576;30;20045;-75
2022/08/02 08:46:48;;;;;;;37.88;9.90;;;;;;;21.32;64.25;101534.13;4681029;30;20476;-73
2022/08/02 08:49:30;;;;;;;12.57;3.00;;;;;;;21.37;63.52;101541.53;4666626;30;20501;-75
2022/08/02 08:52:02;;;;;;;4.97;2.40;;;;;;;21.39;63.28;101544.81;4682472;30;20038;-75
2022/08/02 08:54:29;;;;;;;4.65;1.88;;;;;;;21.40;61.36;101539.03;4681165;30;20076;-74
2022/08/02 08:56:56;;;;;;;6.10;2.10;;;;;;;21.46;61.06;101544.53;4665931;30;20041;-74
2022/08/02 08:59:21;;;;;;;3.30;1.80;;;;;;;21.48;61.44;101529.34;4682083;30;20030;-74
2022/08/02 09:01:49;;;;;;;3.58;1.70;;;;;;;21.51;58.12;101528.81;4680090;30;20026;-76
2022/08/02 09:04:14;;;;;;;7.35;2.10;;;;;;;21.51;57.60;101519.75;4682418;30;20092;-76
2022/08/02 09:06:39;;;;;;;5.60;2.10;;;;;;;21.55;58.19;101535.41;4663580;30;20054;-76
2022/08/02 09:09:05;;;;;;;4.03;1.70;;;;;;;21.61;57.86;101529.91;4677382;30;20026;-74
2022/08/02 09:11:30;;;;;;;4.28;1.80;;;;;;;21.70;57.81;101534.53;4682335;30;20042;-74
2022/08/02 09:13:58;;;;;;;5.47;1.70;;;;;;;21.77;55.43;101536.97;4682477;30;20034;-73
2022/08/02 09:16:28;;;;;;;4.65;1.60;;;;;;;21.87;56.00;101528.63;4666798;30;20432;-73
2022/08/02 09:18:54;;;;;;;3.80;1.60;;;;;;;21.93;55.52;101532.19;4666757;30;20042;-71
2022/08/02 09:21:19;;;;;;;3.97;2.15;;;;;;;22.01;55.87;101523.34;4681718;30;20535;-72
2022/08/02 09:23:50;;;;;;;4.60;1.70;;;;;;;22.11;55.95;101526.00;4681244;30;20069;-72
2022/08/02 09:26:18;;;;;;;5.38;1.92;;;;;;;22.21;55.25;101527.03;4680204;30;20059;-72
2022/08/02 09:28:46;;;;;;;2.67;1.80;;;;;;;22.29;56.06;101526.44;4665547;30;20033;-72
2022/08/02 09:31:14;;;;;;;2.30;1.60;;;;;;;22.39;52.84;101523.63;4681834;30;20045;-72
2022/08/02 09:33:41;;;;;;;4.82;1.65;;;;;;;22.46;52.27;101532.41;4682205;30;20030;-71
2022/08/02 09:36:10;;;;;;;2.45;1.48;;;;;;;22.51;51.37;101523.25;4663361;30;20125;-72
2022/08/02 09:38:36;;;;;;;6.80;1.55;;;;;;;22.57;52.24;101524.84;4663465;30;20031;-71
2022/08/02 09:41:03;;;;;;;5.25;1.60;;;;;;;22.56;52.18;101530.66;4672320;30;20112;-71
2022/08/02 09:43:36;;;;;;;2.50;1.65;;;;;;;22.55;51.95;101529.00;4680205;30;20041;-72
2022/08/02 09:46:21;;;;;;;5.32;1.70;;;;;;;22.68;53.12;101528.31;4665494;30;20045;-76
2022/08/02 09:48:50;;;;;;;3.00;1.52;;;;;;;22.70;51.67;101517.81;4681989;30;20037;-71
2022/08/02 09:51:18;;;;;;;5.88;1.73;;;;;;;22.81;51.12;101526.81;4681762;30;20041;-72
2022/08/02 09:53:43;;;;;;;3.83;1.45;;;;;;;22.91;50.49;101542.44;4681880;30;20026;-73
2022/08/02 09:56:09;;;;;;;3.85;1.70;;;;;;;22.96;49.15;101536.88;4681451;30;20050;-71
2022/08/02 09:58:38;;;;;;;7.93;1.95;;;;;;;23.01;50.07;101539.59;4680092;30;20069;-71
2022/08/02 10:01:03;;;;;;;1.90;1.55;;;;;;;23.02;49.42;101535.69;4681816;30;20077;-71
2022/08/02 10:03:29;;;;;;;4.55;1.60;;;;;;;23.08;49.92;101539.22;4685032;30;20042;-71
2022/08/02 10:06:00;;;;;;;2.97;1.50;;;;;;;23.11;48.92;101530.38;4677836;30;20062;-69
2022/08/02 10:08:26;;;;;;;5.13;1.30;;;;;;;23.22;49.18;101522.81;4684885;30;20460;-69
2022/08/02 10:10:59;;;;;;;6.32;1.70;;;;;;;23.31;48.69;101529.31;4666493;30;20041;-69
2022/08/02 10:13:34;;;;;;;11.98;1.60;;;;;;;23.41;47.51;101533.91;4684716;30;20180;-70
2022/08/02 10:16:01;;;;;;;3.95;1.25;;;;;;;23.49;48.01;101525.78;4676626;30;20034;-69
2022/08/02 10:18:27;;;;;;;6.25;1.50;;;;;;;23.56;47.53;101527.38;4682051;30;20108;-71
2022/08/02 10:20:55;;;;;;;2.60;1.20;;;;;;;23.61;46.87;101524.53;4684634;30;20049;-70
2022/08/02 10:23:23;;;;;;;2.55;1.23;;;;;;;23.63;45.30;101528.66;4684328;30;20496;-70
2022/08/02 10:25:52;;;;;;;3.47;1.30;;;;;;;23.69;45.67;101519.16;4684827;30;20038;-71
2022/08/02 10:28:24;;;;;;;2.47;1.20;;;;;;;23.74;45.70;101511.94;4684624;30;20030;-71
2022/08/02 10:30:52;;;;;;;3.88;1.10;;;;;;;23.83;44.67;101513.72;4684651;30;20040;-70
2022/08/02 10:33:19;;;;;;;4.20;1.15;;;;;;;23.91;44.29;101512.25;4683493;30;20029;-69
2022/08/02 10:35:49;;;;;;;2.53;1.10;;;;;;;23.99;43.85;101513.50;4684660;30;20034;-71
2022/08/02 10:38:15;;;;;;;2.42;1.20;;;;;;;23.94;44.19;101508.88;4684469;30;20030;-71
2022/08/02 10:40:52;;;;;;;3.55;1.48;;;;;;;24.03;44.82;101514.56;4683453;30;20069;-69
2022/08/02 10:43:35;;;;;;;5.25;1.17;;;;;;;24.03;45.66;101520.09;4684218;30;20042;-70
2022/08/02 10:46:30;;;;;;;6.10;1.25;;;;;;;24.06;45.08;101502.91;4684583;30;20033;-72
2022/08/02 10:49:03;;;;;;;3.78;1.10;;;;;;;23.98;43.92;101511.88;4683551;30;20049;-69
2022/08/02 10:51:59;;;;;;;4.38;1.40;;;;;;;23.97;44.85;101513.00;4684474;30;20105;-69
2022/08/02 10:54:25;;;;;;;2.63;1.00;;;;;;;24.01;44.13;101516.81;4684009;30;20077;-69
2022/08/02 10:56:54;;;;;;;7.38;1.40;;;;;;;24.08;44.94;101522.78;4683566;30;20042;-72
2022/08/02 10:59:31;;;;;;;10.55;1.88;;;;;;;24.16;44.81;101513.78;4680873;30;20361;-72
2022/08/02 11:02:02;;;;;;;1.77;1.08;;;;;;;24.20;41.65;101514.00;4667239;30;20026;-71
2022/08/02 11:04:47;;;;;;;13.00;1.97;;;;;;;24.32;44.06;101508.84;4678796;30;20423;-71
2022/08/02 11:07:17;;;;;;;19.75;2.50;;;;;;;24.37;43.41;101496.88;4674391;30;20380;-71
2022/08/02 11:09:44;;;;;;;15.90;1.95;;;;;;;24.44;42.37;101508.34;4679510;30;20466;-71
2022/08/02 11:12:14;;;;;;;2.08;0.93;;;;;;;24.53;40.69;101506.56;4673656;30;20176;-70
2022/08/02 11:14:48;;;;;;;1.52;1.02;;;;;;;24.54;39.78;101502.63;4665640;30;20499;-72
2022/08/02 11:17:17;;;;;;;2.70;0.98;;;;;;;24.64;41.47;101500.84;4681069;30;20133;-71
2022/08/02 11:20:12;;;;;;;6.97;1.15;;;;;;;24.78;41.63;101504.47;4651704;30;20044;-71
2022/08/02 11:22:41;;;;;;;1.98;1.13;;;;;;;24.85;41.14;101496.59;4675299;30;20029;-72
2022/08/02 11:25:25;;;;;;;2.05;0.90;;;;;;;24.98;41.40;101499.66;4664192;30;20116;-71
2022/08/02 11:27:52;;;;;;;3.90;0.95;;;;;;;25.15;40.77;101487.97;4682018;30;20046;-72
2022/08/02 11:30:17;;;;;;;2.28;1.05;;;;;;;25.24;39.44;101494.41;4682686;30;20096;-71
2022/08/02 11:32:43;;;;;;;5.30;1.13;;;;;;;25.16;39.61;101501.50;4683812;30;20034;-74